This is the latest recevied weather packets stored in our database for station/object LKKB. If no packets are shown the sender has not sent any weather packets the latest 1 day(s).
| Time | Temp. | Humidity | Pressure | Rain* | Wind** | Luminosity | Snow |
|---|---|---|---|---|---|---|---|
| 1836274797 | 12.22° C | 93% | 1022 hPa | - | 0.89 m/s, 100° | - | - |
| 1836274023 | 12.22° C | 93% | 1022 hPa | - | 1.34 m/s, 70° | - | - |
| 1778022132 | 12.78° C | 93% | 1006 hPa | - | 2.24 m/s, 290° | - | - |
| 1778020804 | 12.78° C | 93% | 1006 hPa | - | 3.13 m/s, 290° | - | - |
| 1778020263 | 13.89° C | 93% | 1006 hPa | - | 3.58 m/s, 290° | - | - |
| 1778019531 | 13.89° C | 87% | - | - | 6.26 m/s, 270° | - | - |
| 1778018823 | 13.89° C | 93% | 1006 hPa | - | 5.81 m/s, 270° | - | - |
| 1778018463 | 13.89° C | 93% | 1006 hPa | - | 5.81 m/s, 280° | - | - |
| 1778016662 | 15° C | 87% | 1006 hPa | - | 5.81 m/s, 260° | - | - |
| 1778015965 | 16.11° C | 77% | - | - | 4.02 m/s, 280° | - | - |
| 1778015888 | 16.11° C | 82% | 1006 hPa | - | 5.81 m/s, 260° | - | - |
| 1778014938 | 16.11° C | 77% | 1006 hPa | - | 3.58 m/s, 290° | - | - |
| 1778013062 | 17.78° C | 59% | 1004 hPa | - | 5.81 m/s, 240° | - | - |
| 1778012943 | 17.78° C | 59% | 1004 hPa | - | 5.81 m/s, 240° | - | - |
| 1778012348 | 17.22° C | 63% | - | - | 2.24 m/s, 320° | - | - |
| 1778011339 | 17.22° C | 63% | 1003 hPa | - | 2.68 m/s, 320° | - | - |
| 1778009463 | 17.22° C | 67% | 1003 hPa | - | 2.68 m/s, 340° | - | - |
| 1778008765 | 17.22° C | 67% | - | - | 2.24 m/s, 30° | - | - |
| 1778007731 | 17.22° C | 67% | 1004 hPa | - | 2.68 m/s, 40° | - | - |
| 1778005862 | 18.89° C | 55% | 1004 hPa | - | 4.47 m/s, 70° | - | - |
| 1778005150 | 18.89° C | 52% | - | - | 5.36 m/s, 110° | - | - |
| 1778004063 | 18.89° C | 55% | 1004 hPa | - | 5.36 m/s, 110° | - | - |
| 1778003043 | 18.89° C | 55% | 1004 hPa | - | 5.36 m/s, 120° | - | - |
| 1778002262 | 20° C | 52% | 1004 hPa | - | 6.71 m/s, 120° | - | - |
| 1778001532 | 20° C | 52% | - | - | 7.15 m/s, 120° | - | - |
* Rain since midnight (hover to see other rain measurements)
** Current wind speed in m/s (hover to see current wind gust speed)